createdAt,value
2023-07-11T00:00:15.662Z,44.16
2023-07-11T00:00:47.244Z,43.95
2023-07-11T00:01:18.890Z,43.91
2023-07-11T00:01:50.494Z,44.39
2023-07-11T00:02:21.962Z,44.21
2023-07-11T00:02:53.641Z,44.37
2023-07-11T00:03:25.274Z,44.33
2023-07-11T00:03:58.792Z,44.22
2023-07-11T00:04:30.307Z,44.22
2023-07-11T00:05:01.743Z,43.96
2023-07-11T00:05:33.194Z,44.16
2023-07-11T00:06:05.025Z,43.99
2023-07-11T00:06:36.694Z,44.41
2023-07-11T00:07:08.243Z,44.42
2023-07-11T00:07:39.766Z,44.05
2023-07-11T00:08:11.356Z,44.22
2023-07-11T00:08:42.821Z,44.15
2023-07-11T00:09:14.253Z,44.37
2023-07-11T00:09:45.726Z,44.42
2023-07-11T00:10:17.174Z,44.43
2023-07-11T00:10:48.581Z,44.40
2023-07-11T00:11:20.059Z,43.99
2023-07-11T00:11:51.563Z,44.44
2023-07-11T00:12:23.181Z,44.01
2023-07-11T00:12:54.619Z,43.98
2023-07-11T00:13:26.100Z,44.45
2023-07-11T00:13:57.577Z,44.16
2023-07-11T00:14:29.086Z,44.11
2023-07-11T00:15:00.574Z,44.33
2023-07-11T00:15:32.027Z,44.38
2023-07-11T00:16:03.656Z,44.44
2023-07-11T00:16:35.188Z,44.45
2023-07-11T00:17:06.859Z,44.05
2023-07-11T00:17:39.377Z,44.41
2023-07-11T00:18:10.892Z,44.07
2023-07-11T00:18:42.371Z,43.91
2023-07-11T00:19:13.834Z,44.09
2023-07-11T00:19:45.334Z,44.31
2023-07-11T00:20:16.804Z,44.21
2023-07-11T00:20:48.319Z,44.10
2023-07-11T00:21:19.791Z,44.15
2023-07-11T00:21:51.263Z,44.05
2023-07-11T00:22:22.792Z,44.20
2023-07-11T00:22:54.347Z,44.44
2023-07-11T00:23:25.913Z,44.09
2023-07-11T00:23:57.475Z,44.13
2023-07-11T00:24:28.973Z,44.01
2023-07-11T00:25:00.471Z,44.22
2023-07-11T00:25:31.928Z,44.18
2023-07-11T00:26:03.407Z,44.06
2023-07-11T00:26:34.893Z,44.02
2023-07-11T00:27:06.329Z,44.18
2023-07-11T00:27:37.837Z,44.32
2023-07-11T00:28:09.276Z,44.09
2023-07-11T00:28:40.696Z,44.28
2023-07-11T00:29:12.193Z,44.38
2023-07-11T00:29:43.625Z,44.03
2023-07-11T00:30:15.155Z,44.30
2023-07-11T00:30:46.668Z,44.05
2023-07-11T00:31:18.157Z,44.24
2023-07-11T00:31:49.668Z,44.32
2023-07-11T00:32:21.200Z,44.21
2023-07-11T00:32:52.762Z,44.13
2023-07-11T00:33:24.388Z,44.19
2023-07-11T00:33:56.150Z,44.30
2023-07-11T00:34:27.614Z,44.28
2023-07-11T00:34:59.045Z,44.01
2023-07-11T00:35:30.504Z,44.33
2023-07-11T00:36:01.995Z,44.12
2023-07-11T00:36:33.467Z,44.04
2023-07-11T00:37:04.932Z,44.26
2023-07-11T00:37:36.373Z,44.21
2023-07-11T00:38:07.875Z,44.37
2023-07-11T00:38:39.352Z,44.22
2023-07-11T00:39:10.803Z,44.18
2023-07-11T00:39:42.262Z,44.07
2023-07-11T00:40:13.698Z,44.00
2023-07-11T00:40:45.196Z,44.41
2023-07-11T00:41:16.688Z,44.40
2023-07-11T00:41:48.174Z,44.25
2023-07-11T00:42:19.781Z,44.00
2023-07-11T00:42:51.345Z,44.20
2023-07-11T00:43:22.925Z,43.95
2023-07-11T00:43:54.564Z,44.13
2023-07-11T00:44:26.270Z,44.22
2023-07-11T00:44:57.822Z,44.29
2023-07-11T00:45:29.242Z,44.34
2023-07-11T00:46:00.705Z,44.15
2023-07-11T00:46:32.178Z,43.89
2023-07-11T00:47:03.841Z,44.36
2023-07-11T00:47:35.806Z,44.17
2023-07-11T00:48:39.744Z,43.92
2023-07-11T00:49:10.975Z,44.30
2023-07-11T00:49:42.318Z,44.24
2023-07-11T00:50:13.848Z,44.03
2023-07-11T00:50:45.253Z,43.98
2023-07-11T00:51:16.666Z,44.05
2023-07-11T00:51:48.135Z,44.17
2023-07-11T00:52:19.536Z,44.22
2023-07-11T00:52:50.973Z,44.31
2023-07-11T00:53:22.383Z,44.15
2023-07-11T00:53:53.828Z,44.04
2023-07-11T00:54:25.378Z,44.00
2023-07-11T00:54:56.775Z,44.30
2023-07-11T00:55:28.224Z,43.95
2023-07-11T00:55:59.634Z,44.10
2023-07-11T00:56:31.185Z,44.32
2023-07-11T00:57:02.630Z,44.32
2023-07-11T00:57:34.108Z,44.02
2023-07-11T00:58:05.554Z,44.06
2023-07-11T00:58:36.973Z,43.93
2023-07-11T00:59:08.465Z,43.89
2023-07-11T00:59:39.908Z,44.19
2023-07-11T01:00:11.374Z,43.86
2023-07-11T01:00:42.877Z,44.11
2023-07-11T01:01:14.413Z,44.15
2023-07-11T01:01:45.976Z,44.10
2023-07-11T01:02:17.405Z,44.34
2023-07-11T01:02:48.906Z,44.36
2023-07-11T01:03:20.490Z,44.31
2023-07-11T01:03:51.986Z,44.26
2023-07-11T01:04:23.623Z,44.30
2023-07-11T01:04:55.092Z,44.25
2023-07-11T01:05:26.530Z,44.31
2023-07-11T01:05:57.961Z,44.22
2023-07-11T01:06:29.369Z,44.07
2023-07-11T01:07:00.798Z,44.03
2023-07-11T01:07:32.279Z,43.97
2023-07-11T01:08:03.772Z,44.39
2023-07-11T01:08:35.219Z,44.06
2023-07-11T01:09:06.662Z,44.23
2023-07-11T01:09:38.123Z,44.12
2023-07-11T01:10:09.617Z,44.37
2023-07-11T01:10:41.111Z,44.05
2023-07-11T01:11:12.519Z,44.07
2023-07-11T01:11:43.985Z,44.22
2023-07-11T01:12:15.398Z,44.09
2023-07-11T01:12:46.830Z,44.14
2023-07-11T01:13:18.303Z,44.28
2023-07-11T01:13:49.764Z,44.28
2023-07-11T01:14:21.311Z,44.51
2023-07-11T01:14:52.905Z,44.12
2023-07-11T01:15:24.440Z,44.44
2023-07-11T01:15:55.872Z,44.21
2023-07-11T01:16:27.577Z,44.42
2023-07-11T01:16:59.061Z,44.52
2023-07-11T01:17:30.614Z,44.19
2023-07-11T01:18:02.176Z,44.10
2023-07-11T01:18:33.623Z,44.26
2023-07-11T01:19:05.103Z,44.19
2023-07-11T01:19:36.570Z,44.49
2023-07-11T01:20:08.031Z,44.46
2023-07-11T01:20:39.567Z,44.40
2023-07-11T01:21:10.995Z,44.20
2023-07-11T01:21:42.447Z,44.46
2023-07-11T01:22:13.931Z,44.00
2023-07-11T01:22:45.363Z,44.37
2023-07-11T01:23:16.832Z,44.53
2023-07-11T01:23:48.770Z,44.15
2023-07-11T01:24:20.553Z,44.37
2023-07-11T01:24:51.974Z,44.31
2023-07-11T01:25:23.375Z,44.47
2023-07-11T01:25:54.788Z,44.13
2023-07-11T01:26:26.229Z,44.39
2023-07-11T01:26:57.614Z,44.25
2023-07-11T01:27:29.079Z,44.23
2023-07-11T01:28:00.561Z,44.29
2023-07-11T01:28:32.013Z,44.27
2023-07-11T01:29:03.425Z,44.05
2023-07-11T01:29:34.813Z,44.41
2023-07-11T01:30:06.262Z,44.47
2023-07-11T01:30:37.678Z,44.11
2023-07-11T01:31:09.255Z,43.97
2023-07-11T01:31:40.721Z,44.10
2023-07-11T01:32:12.177Z,44.13
2023-07-11T01:32:43.604Z,44.09
2023-07-11T01:33:15.079Z,44.21
2023-07-11T01:33:46.642Z,44.01
2023-07-11T01:34:18.075Z,44.21
2023-07-11T01:34:49.572Z,44.04
2023-07-11T01:35:21.005Z,44.25
2023-07-11T01:35:52.500Z,44.12
2023-07-11T01:36:23.964Z,44.47
2023-07-11T01:36:55.348Z,44.12
2023-07-11T01:37:26.775Z,44.09
2023-07-11T01:37:58.206Z,44.03
2023-07-11T01:38:29.635Z,44.13
2023-07-11T01:39:01.153Z,43.99
2023-07-11T01:39:32.599Z,44.05
2023-07-11T01:40:04.019Z,44.02
2023-07-11T01:40:35.480Z,43.97
2023-07-11T01:41:07.017Z,44.24
2023-07-11T01:41:38.436Z,44.07
2023-07-11T01:42:09.856Z,44.17
2023-07-11T01:42:41.271Z,44.06
2023-07-11T01:43:12.837Z,44.48
2023-07-11T01:43:44.253Z,44.09
2023-07-11T01:44:15.749Z,44.33
2023-07-11T01:44:47.214Z,44.27
2023-07-11T01:45:18.716Z,44.31
2023-07-11T01:45:50.274Z,44.37
2023-07-11T01:46:21.721Z,44.26
2023-07-11T01:46:53.262Z,44.33
2023-07-11T01:47:24.722Z,44.10
2023-07-11T01:47:56.239Z,44.00
2023-07-11T01:48:27.738Z,44.10
2023-07-11T01:48:59.206Z,44.30
2023-07-11T01:49:30.615Z,44.08
2023-07-11T01:50:02.278Z,43.93
2023-07-11T01:50:33.689Z,44.43
2023-07-11T01:51:05.173Z,43.95
2023-07-11T01:51:36.670Z,44.07
2023-07-11T01:52:08.095Z,44.27
2023-07-11T01:52:39.514Z,43.93
2023-07-11T01:53:10.975Z,44.00
2023-07-11T01:53:42.421Z,44.10
2023-07-11T01:54:13.846Z,44.00
2023-07-11T01:54:45.291Z,44.31
2023-07-11T01:55:16.781Z,44.18
2023-07-11T01:55:48.243Z,44.34
2023-07-11T01:56:19.695Z,44.17
2023-07-11T01:56:51.118Z,44.10
2023-07-11T01:57:22.569Z,44.22
2023-07-11T01:57:53.990Z,44.17
2023-07-11T01:58:25.436Z,44.30
2023-07-11T01:58:56.882Z,44.34
2023-07-11T01:59:28.328Z,44.44
2023-07-11T01:59:59.779Z,44.01
2023-07-11T02:00:31.316Z,44.17
2023-07-11T02:01:02.741Z,44.00
2023-07-11T02:01:34.293Z,44.35
2023-07-11T02:02:05.771Z,43.96
2023-07-11T02:02:37.301Z,44.27
2023-07-11T02:03:08.857Z,44.10
2023-07-11T02:03:40.366Z,43.96
2023-07-11T02:04:11.836Z,44.32
2023-07-11T02:04:43.251Z,44.06
2023-07-11T02:05:14.668Z,44.26
2023-07-11T02:05:46.214Z,44.09
2023-07-11T02:06:17.632Z,44.37
2023-07-11T02:06:49.077Z,43.94
2023-07-11T02:07:20.528Z,44.33
2023-07-11T02:07:51.948Z,43.96
2023-07-11T02:08:23.370Z,44.06
2023-07-11T02:08:54.911Z,43.93
2023-07-11T02:09:26.401Z,44.33
2023-07-11T02:09:57.972Z,44.00
2023-07-11T02:10:29.427Z,43.98
2023-07-11T02:11:01.045Z,44.00
2023-07-11T02:11:32.510Z,44.14
2023-07-11T02:12:03.913Z,44.05
2023-07-11T02:12:35.366Z,43.91
2023-07-11T02:13:06.931Z,43.97
2023-07-11T02:13:38.463Z,43.88
2023-07-11T02:14:09.993Z,44.07
2023-07-11T02:14:41.467Z,43.96
2023-07-11T02:15:12.925Z,43.84
2023-07-11T02:15:44.362Z,43.94
2023-07-11T02:16:15.906Z,44.09
2023-07-11T02:16:47.473Z,43.83
2023-07-11T02:17:19.120Z,43.84
2023-07-11T02:17:50.818Z,43.97
2023-07-11T02:18:22.383Z,44.13
2023-07-11T02:18:53.825Z,44.06
2023-07-11T02:19:25.363Z,43.94
2023-07-11T02:19:56.879Z,44.20
2023-07-11T02:20:28.312Z,43.95
2023-07-11T02:20:59.714Z,43.98
2023-07-11T02:21:31.178Z,44.30
2023-07-11T02:22:02.660Z,44.20
2023-07-11T02:22:34.293Z,43.88
2023-07-11T02:23:05.859Z,43.88
2023-07-11T02:23:37.299Z,44.13
2023-07-11T02:24:08.818Z,44.23
2023-07-11T02:24:40.357Z,44.26
2023-07-11T02:25:11.891Z,44.03
2023-07-11T02:25:43.402Z,44.27
2023-07-11T02:26:14.863Z,44.11
2023-07-11T02:26:46.374Z,44.30
2023-07-11T02:27:17.862Z,44.14
2023-07-11T02:27:49.350Z,44.12
2023-07-11T02:28:20.816Z,44.01
2023-07-11T02:28:52.224Z,43.88
2023-07-11T02:29:23.632Z,44.25
2023-07-11T02:29:55.056Z,44.15
2023-07-11T02:30:26.456Z,44.22
2023-07-11T02:30:57.869Z,44.14
2023-07-11T02:31:29.378Z,44.20
2023-07-11T02:32:01.006Z,44.02
2023-07-11T02:32:32.613Z,44.19
2023-07-11T02:33:04.137Z,44.17
2023-07-11T02:33:35.552Z,43.98
2023-07-11T02:34:06.999Z,44.20
2023-07-11T02:34:38.452Z,44.19
2023-07-11T02:35:09.888Z,44.21
2023-07-11T02:35:41.331Z,44.12
2023-07-11T02:36:12.858Z,44.08
2023-07-11T02:36:44.315Z,44.16
2023-07-11T02:37:15.890Z,44.02
2023-07-11T02:37:47.369Z,43.84
2023-07-11T02:38:18.899Z,44.19
2023-07-11T02:38:50.297Z,43.84
2023-07-11T02:39:21.779Z,44.20
2023-07-11T02:39:53.175Z,44.15
2023-07-11T02:40:24.637Z,43.90
2023-07-11T02:40:56.120Z,44.14
2023-07-11T02:41:27.612Z,44.20
2023-07-11T02:41:59.284Z,44.08
2023-07-11T02:42:30.692Z,44.26
2023-07-11T02:43:02.148Z,44.08
2023-07-11T02:43:33.567Z,44.25
2023-07-11T02:44:04.990Z,44.19
2023-07-11T02:44:36.437Z,44.22
2023-07-11T02:45:07.877Z,43.81
2023-07-11T02:45:39.346Z,44.06
2023-07-11T02:46:10.940Z,44.17
2023-07-11T02:46:42.396Z,43.94
2023-07-11T02:47:13.774Z,44.19
2023-07-11T02:47:45.312Z,44.13
2023-07-11T02:48:16.737Z,43.94
2023-07-11T02:48:48.147Z,44.02
2023-07-11T02:49:19.576Z,44.08
2023-07-11T02:49:51.007Z,44.19
2023-07-11T02:50:22.432Z,43.79
2023-07-11T02:50:53.869Z,43.96
2023-07-11T02:51:25.283Z,44.12
2023-07-11T02:51:56.763Z,44.00
2023-07-11T02:52:28.229Z,43.99
2023-07-11T02:52:59.745Z,43.77
2023-07-11T02:53:31.176Z,44.17
2023-07-11T02:54:02.638Z,43.97
2023-07-11T02:54:34.061Z,43.94
2023-07-11T02:55:05.468Z,44.05
2023-07-11T02:55:36.928Z,43.74
2023-07-11T02:56:08.789Z,43.84
2023-07-11T02:56:40.429Z,43.78
2023-07-11T02:57:11.873Z,43.74
2023-07-11T02:57:43.287Z,43.83
2023-07-11T02:58:14.692Z,44.21
2023-07-11T02:58:46.241Z,43.98
2023-07-11T02:59:17.676Z,44.24
2023-07-11T02:59:49.100Z,43.84
2023-07-11T03:00:20.540Z,44.08
2023-07-11T03:00:52.013Z,44.03
2023-07-11T03:01:23.541Z,43.71
2023-07-11T03:01:54.986Z,44.04
2023-07-11T03:02:26.491Z,43.75
2023-07-11T03:02:57.950Z,43.83
2023-07-11T03:03:29.439Z,44.10
2023-07-11T03:04:00.857Z,43.83
2023-07-11T03:04:32.311Z,44.13
2023-07-11T03:05:04.049Z,43.73
2023-07-11T03:05:36.308Z,44.03
2023-07-11T03:06:08.055Z,43.91
2023-07-11T03:06:39.665Z,44.17
2023-07-11T03:07:11.064Z,44.14
2023-07-11T03:07:42.540Z,43.97
2023-07-11T03:08:13.955Z,43.74
2023-07-11T03:08:45.389Z,44.03
2023-07-11T03:09:16.844Z,43.65
2023-07-11T03:09:48.297Z,44.00
2023-07-11T03:10:19.694Z,44.12
2023-07-11T03:10:51.142Z,43.95
2023-07-11T03:11:22.550Z,43.80
2023-07-11T03:11:54.007Z,43.82
2023-07-11T03:12:25.481Z,43.82
2023-07-11T03:12:56.914Z,43.80
2023-07-11T03:13:28.428Z,44.04
2023-07-11T03:14:00.052Z,43.79
2023-07-11T03:14:31.596Z,43.85
2023-07-11T03:15:04.600Z,43.99
2023-07-11T03:15:36.434Z,43.74
2023-07-11T03:16:08.091Z,43.82
2023-07-11T03:16:39.735Z,43.79
2023-07-11T03:17:11.258Z,43.63
2023-07-11T03:17:42.828Z,43.83
2023-07-11T03:18:14.340Z,44.10
2023-07-11T03:18:45.911Z,43.81
2023-07-11T03:19:17.401Z,43.86
2023-07-11T03:19:48.765Z,43.82
2023-07-11T03:20:20.158Z,43.74
2023-07-11T03:20:51.626Z,43.92
2023-07-11T03:21:23.076Z,43.77
2023-07-11T03:21:54.482Z,43.93
2023-07-11T03:22:25.916Z,43.77
2023-07-11T03:22:57.336Z,43.87
2023-07-11T03:23:28.810Z,43.67
2023-07-11T03:24:00.295Z,43.99
2023-07-11T03:24:31.758Z,43.87
2023-07-11T03:25:03.181Z,44.06
2023-07-11T03:25:34.648Z,44.05
2023-07-11T03:26:06.400Z,43.67
2023-07-11T03:26:38.130Z,43.84
2023-07-11T03:27:09.674Z,43.75
2023-07-11T03:27:41.131Z,43.54
2023-07-11T03:28:12.647Z,43.57
2023-07-11T03:28:44.101Z,43.80
2023-07-11T03:29:15.488Z,43.74
2023-07-11T03:29:46.927Z,43.68
2023-07-11T03:30:18.390Z,43.66
2023-07-11T03:30:49.985Z,43.70
2023-07-11T03:31:21.560Z,43.98
2023-07-11T03:31:53.054Z,44.07
2023-07-11T03:32:24.487Z,43.90
2023-07-11T03:32:56.107Z,43.88
2023-07-11T03:33:27.575Z,43.88
2023-07-11T03:33:59.063Z,43.55
2023-07-11T03:34:30.503Z,43.92
2023-07-11T03:35:03.842Z,43.89
2023-07-11T03:35:35.578Z,43.90
2023-07-11T03:36:07.254Z,44.00
2023-07-11T03:36:38.877Z,43.94
2023-07-11T03:37:10.317Z,43.78
2023-07-11T03:37:41.800Z,43.95
2023-07-11T03:38:13.239Z,43.82
2023-07-11T03:38:44.699Z,43.83
2023-07-11T03:39:16.193Z,43.78
2023-07-11T03:39:47.619Z,43.67
2023-07-11T03:40:19.093Z,44.06
2023-07-11T03:40:50.538Z,43.85
2023-07-11T03:41:21.945Z,43.83
2023-07-11T03:41:53.443Z,43.65
2023-07-11T03:42:24.869Z,43.89
2023-07-11T03:42:56.404Z,43.64
2023-07-11T03:43:27.885Z,43.71
2023-07-11T03:43:59.310Z,43.72
2023-07-11T03:44:30.703Z,43.95
2023-07-11T03:45:02.098Z,43.71
2023-07-11T03:45:33.512Z,43.70
2023-07-11T03:46:05.084Z,43.79
2023-07-11T03:46:36.639Z,43.78
2023-07-11T03:47:08.189Z,43.78
2023-07-11T03:47:39.634Z,43.57
2023-07-11T03:48:11.113Z,43.51
2023-07-11T03:48:42.599Z,44.00
2023-07-11T03:49:14.033Z,43.64
2023-07-11T03:49:45.424Z,43.73
2023-07-11T03:50:16.850Z,43.71
2023-07-11T03:50:48.260Z,43.94
2023-07-11T03:51:19.682Z,43.70
2023-07-11T03:51:51.107Z,43.72
2023-07-11T03:52:22.535Z,43.71
2023-07-11T03:52:54.023Z,43.94
2023-07-11T03:53:25.442Z,43.95
2023-07-11T03:53:57.010Z,43.71
2023-07-11T03:54:28.500Z,43.87
2023-07-11T03:54:59.972Z,43.98
2023-07-11T03:55:31.407Z,43.83
2023-07-11T03:56:02.830Z,43.83
2023-07-11T03:56:34.397Z,43.73
2023-07-11T03:57:05.832Z,43.81
2023-07-11T03:57:37.274Z,43.58
2023-07-11T03:58:08.748Z,43.71
2023-07-11T03:58:40.153Z,43.91
2023-07-11T03:59:11.602Z,43.59
2023-07-11T03:59:43.001Z,43.81
2023-07-11T04:00:14.413Z,43.59
2023-07-11T04:00:46.542Z,43.92
2023-07-11T04:01:18.168Z,43.84
2023-07-11T04:01:49.615Z,43.84
2023-07-11T04:02:21.061Z,43.37
2023-07-11T04:02:52.645Z,43.83
2023-07-11T04:03:24.269Z,43.40
2023-07-11T04:03:55.857Z,43.89
2023-07-11T04:04:27.576Z,43.70
2023-07-11T04:04:59.069Z,43.88
2023-07-11T04:05:30.635Z,43.67
2023-07-11T04:06:02.024Z,43.52
2023-07-11T04:06:33.464Z,43.74
2023-07-11T04:07:04.855Z,43.53
2023-07-11T04:07:36.355Z,43.45
2023-07-11T04:08:07.778Z,43.83
2023-07-11T04:08:39.235Z,43.68
2023-07-11T04:09:10.625Z,43.91
2023-07-11T04:09:42.136Z,43.78
2023-07-11T04:10:13.676Z,43.59
2023-07-11T04:10:45.135Z,43.82
2023-07-11T04:11:16.670Z,43.75
2023-07-11T04:11:48.118Z,43.59
2023-07-11T04:12:19.596Z,43.82
2023-07-11T04:12:51.002Z,43.35
2023-07-11T04:13:22.423Z,43.79
2023-07-11T04:13:53.854Z,43.57
2023-07-11T04:14:25.376Z,43.73
2023-07-11T04:14:56.906Z,43.70
2023-07-11T04:15:28.485Z,43.72
2023-07-11T04:15:59.910Z,43.58
2023-07-11T04:16:31.452Z,43.58
2023-07-11T04:17:03.041Z,43.46
2023-07-11T04:17:34.574Z,43.58
2023-07-11T04:18:05.989Z,43.50
2023-07-11T04:18:37.563Z,44.00
2023-07-11T04:19:09.007Z,43.90
2023-07-11T04:19:40.487Z,43.65
2023-07-11T04:20:11.986Z,43.68
2023-07-11T04:20:43.531Z,43.63
2023-07-11T04:21:14.994Z,43.63
2023-07-11T04:21:46.436Z,43.66
2023-07-11T04:22:17.917Z,43.65
2023-07-11T04:22:49.385Z,43.72
2023-07-11T04:23:20.832Z,43.45
2023-07-11T04:23:52.250Z,43.42
2023-07-11T04:24:23.663Z,43.84
2023-07-11T04:24:55.141Z,43.67
2023-07-11T04:25:26.562Z,43.49
2023-07-11T04:25:58.051Z,43.68
2023-07-11T04:26:29.441Z,43.71
2023-07-11T04:27:00.912Z,43.80
2023-07-11T04:27:32.422Z,43.58
2023-07-11T04:28:03.894Z,43.86
2023-07-11T04:28:35.459Z,43.81
2023-07-11T04:29:06.934Z,43.50
2023-07-11T04:29:38.350Z,44.02
2023-07-11T04:30:09.778Z,43.79
2023-07-11T04:30:41.285Z,43.47
2023-07-11T04:31:12.866Z,43.80
2023-07-11T04:31:44.388Z,43.58
2023-07-11T04:32:15.795Z,43.76
2023-07-11T04:32:47.262Z,43.59
2023-07-11T04:33:19.321Z,43.69
2023-07-11T04:33:50.927Z,43.67
2023-07-11T04:34:22.436Z,43.87
2023-07-11T04:34:53.852Z,43.98
2023-07-11T04:35:25.317Z,43.71
2023-07-11T04:35:56.829Z,43.94
2023-07-11T04:36:28.325Z,43.90
2023-07-11T04:36:59.739Z,43.89
2023-07-11T04:37:31.225Z,43.88
2023-07-11T04:38:02.631Z,43.38
2023-07-11T04:38:34.192Z,43.74
2023-07-11T04:39:05.670Z,43.58
2023-07-11T04:39:37.122Z,43.61
2023-07-11T04:40:08.603Z,43.73
2023-07-11T04:40:40.063Z,43.63
2023-07-11T04:41:11.509Z,43.72
2023-07-11T04:41:42.970Z,43.39
2023-07-11T04:42:14.420Z,43.61
2023-07-11T04:42:45.934Z,43.48
2023-07-11T04:43:17.399Z,43.43
2023-07-11T04:43:48.840Z,43.47
2023-07-11T04:44:20.282Z,43.56
2023-07-11T04:44:51.711Z,43.80
2023-07-11T04:45:23.152Z,43.62
2023-07-11T04:45:54.654Z,43.63
2023-07-11T04:46:26.101Z,43.54
2023-07-11T04:46:57.601Z,43.49
2023-07-11T04:47:29.177Z,43.61
2023-07-11T04:48:00.675Z,43.63
2023-07-11T04:48:32.113Z,43.82
2023-07-11T04:49:03.539Z,43.46
2023-07-11T04:49:35.034Z,43.53
2023-07-11T04:50:06.485Z,43.66
2023-07-11T04:50:37.938Z,43.51
2023-07-11T04:51:09.408Z,43.41
2023-07-11T04:51:40.953Z,43.87
2023-07-11T04:52:12.422Z,43.38
2023-07-11T04:52:43.878Z,43.37
2023-07-11T04:53:15.339Z,43.39
2023-07-11T04:53:46.812Z,43.67
2023-07-11T04:54:18.260Z,43.38
2023-07-11T04:54:49.708Z,43.68
2023-07-11T04:55:21.128Z,43.72
2023-07-11T04:55:52.560Z,43.50
2023-07-11T04:56:24.022Z,43.65
2023-07-11T04:56:55.515Z,43.76
2023-07-11T04:57:26.968Z,43.48
2023-07-11T04:57:58.441Z,43.75
2023-07-11T04:58:29.934Z,43.60
2023-07-11T04:59:01.361Z,43.36
2023-07-11T04:59:32.869Z,43.74
2023-07-11T05:00:04.321Z,43.36
2023-07-11T05:00:35.752Z,43.32
2023-07-11T05:01:07.155Z,43.60
2023-07-11T05:01:38.687Z,43.76
2023-07-11T05:02:10.553Z,43.79
2023-07-11T05:02:42.057Z,43.59
2023-07-11T05:03:13.536Z,43.48
2023-07-11T05:03:45.013Z,43.53
2023-07-11T05:04:16.666Z,43.52
2023-07-11T05:04:48.219Z,43.59
2023-07-11T05:05:19.753Z,43.74
2023-07-11T05:05:51.176Z,43.89
2023-07-11T05:06:22.629Z,43.73
2023-07-11T05:06:54.047Z,43.78
2023-07-11T05:07:25.548Z,43.60
2023-07-11T05:07:57.035Z,43.89
2023-07-11T05:08:28.428Z,43.46
2023-07-11T05:08:59.878Z,43.43
2023-07-11T05:09:31.339Z,43.61
2023-07-11T05:10:02.758Z,43.82
2023-07-11T05:10:34.253Z,43.85
2023-07-11T05:11:05.674Z,43.72
2023-07-11T05:11:37.129Z,43.85
2023-07-11T05:12:08.642Z,43.84
2023-07-11T05:12:40.144Z,43.52
2023-07-11T05:13:13.008Z,43.60
2023-07-11T05:13:45.815Z,43.84
2023-07-11T05:14:17.385Z,43.49
2023-07-11T05:14:48.915Z,43.56
2023-07-11T05:15:20.320Z,43.81
2023-07-11T05:15:51.924Z,43.84
2023-07-11T05:16:23.517Z,43.74
2023-07-11T05:16:55.021Z,43.79
2023-07-11T05:17:26.531Z,43.70
2023-07-11T05:17:58.183Z,43.65
2023-07-11T05:18:29.627Z,43.64
2023-07-11T05:19:01.078Z,43.71
2023-07-11T05:19:32.528Z,43.47
2023-07-11T05:20:03.942Z,43.63
2023-07-11T05:20:35.376Z,43.70
2023-07-11T05:21:06.843Z,43.63
2023-07-11T05:21:38.288Z,43.64
2023-07-11T05:22:09.781Z,43.85
2023-07-11T05:22:41.233Z,43.88
2023-07-11T05:23:12.765Z,43.85
2023-07-11T05:23:44.246Z,43.56
2023-07-11T05:24:15.641Z,43.86
2023-07-11T05:24:47.120Z,43.37
2023-07-11T05:25:18.558Z,43.63
2023-07-11T05:25:50.000Z,43.70
2023-07-11T05:26:21.428Z,43.65
2023-07-11T05:26:52.842Z,43.95
2023-07-11T05:27:24.278Z,43.48
2023-07-11T05:27:55.731Z,43.88
2023-07-11T05:28:27.178Z,43.61
2023-07-11T05:28:58.652Z,43.84
2023-07-11T05:29:30.086Z,43.81
2023-07-11T05:30:01.469Z,43.58
2023-07-11T05:30:32.910Z,43.74
2023-07-11T05:31:04.442Z,43.92
2023-07-11T05:31:35.931Z,43.76
2023-07-11T05:32:07.565Z,43.40
2023-07-11T05:32:39.116Z,43.88
2023-07-11T05:33:10.531Z,43.65
2023-07-11T05:33:42.012Z,43.85
2023-07-11T05:34:13.414Z,43.50
2023-07-11T05:34:44.821Z,43.91
2023-07-11T05:35:16.386Z,43.70
2023-07-11T05:35:47.869Z,43.76
2023-07-11T05:36:19.412Z,43.76
2023-07-11T05:36:50.812Z,43.77
2023-07-11T05:37:22.264Z,43.61
2023-07-11T05:37:53.686Z,43.98
2023-07-11T05:38:25.078Z,43.89
2023-07-11T05:38:56.632Z,43.80
2023-07-11T05:39:28.062Z,43.75
2023-07-11T05:39:59.529Z,43.74
2023-07-11T05:40:30.941Z,43.94
2023-07-11T05:41:02.385Z,43.61
2023-07-11T05:41:33.877Z,43.61
2023-07-11T05:42:05.324Z,43.74
2023-07-11T05:42:36.770Z,43.82
2023-07-11T05:43:08.250Z,43.85
2023-07-11T05:43:39.682Z,43.89
2023-07-11T05:44:11.104Z,43.53
2023-07-11T05:44:42.548Z,43.71
2023-07-11T05:45:14.029Z,43.85
2023-07-11T05:45:45.576Z,43.49
2023-07-11T05:46:17.067Z,43.92
2023-07-11T05:46:48.834Z,43.76
2023-07-11T05:47:20.413Z,43.66
2023-07-11T05:47:51.920Z,44.02
2023-07-11T05:48:23.451Z,43.85
2023-07-11T05:48:54.894Z,43.77
2023-07-11T05:49:26.371Z,44.03
2023-07-11T05:49:57.839Z,43.88
2023-07-11T05:50:29.257Z,44.00
2023-07-11T05:51:00.714Z,43.97
2023-07-11T05:51:32.180Z,43.95
2023-07-11T05:52:03.762Z,43.92
2023-07-11T05:52:35.266Z,44.06
2023-07-11T05:53:06.691Z,43.93
2023-07-11T05:53:38.115Z,44.06
2023-07-11T05:54:09.649Z,43.96
2023-07-11T05:54:41.144Z,43.63
2023-07-11T05:55:12.638Z,43.76
2023-07-11T05:55:44.124Z,44.03
2023-07-11T05:56:15.613Z,44.04
2023-07-11T05:56:47.239Z,43.76
2023-07-11T05:57:18.744Z,43.96
2023-07-11T05:57:50.200Z,43.89
2023-07-11T05:58:21.716Z,44.05
2023-07-11T05:58:53.153Z,44.21
2023-07-11T05:59:24.648Z,44.06
2023-07-11T05:59:56.060Z,44.27
2023-07-11T06:00:27.514Z,44.01
2023-07-11T06:00:58.947Z,44.22
2023-07-11T06:01:30.881Z,44.04
2023-07-11T06:02:02.648Z,44.34
2023-07-11T06:02:34.562Z,44.22
2023-07-11T06:03:06.025Z,44.27
2023-07-11T06:03:37.543Z,44.20
2023-07-11T06:04:09.113Z,43.89
2023-07-11T06:04:40.768Z,43.98
2023-07-11T06:05:12.210Z,44.03
2023-07-11T06:05:43.775Z,44.09
2023-07-11T06:06:15.269Z,44.22
2023-07-11T06:06:46.675Z,44.10
2023-07-11T06:07:18.088Z,43.80
2023-07-11T06:07:49.572Z,44.01
2023-07-11T06:08:21.045Z,43.79
2023-07-11T06:08:52.507Z,43.99
2023-07-11T06:09:24.017Z,44.15
2023-07-11T06:09:57.427Z,44.06
2023-07-11T06:10:29.051Z,44.24
2023-07-11T06:11:00.535Z,44.17
2023-07-11T06:11:31.981Z,43.91
2023-07-11T06:12:03.439Z,44.13
2023-07-11T06:12:34.898Z,44.33
2023-07-11T06:13:06.436Z,43.91
2023-07-11T06:13:38.095Z,44.23
2023-07-11T06:14:09.636Z,44.11
2023-07-11T06:14:41.130Z,44.02
2023-07-11T06:15:12.728Z,44.31
2023-07-11T06:15:44.334Z,43.75
2023-07-11T06:16:15.943Z,44.02
2023-07-11T06:16:50.826Z,44.18
2023-07-11T06:17:23.208Z,43.92
2023-07-11T06:17:54.832Z,44.20
2023-07-11T06:18:26.297Z,44.15
2023-07-11T06:18:57.818Z,44.01
2023-07-11T06:19:29.254Z,43.86
2023-07-11T06:20:00.722Z,44.15
2023-07-11T06:20:32.163Z,44.07
2023-07-11T06:21:03.688Z,44.31
2023-07-11T06:21:35.154Z,44.34
2023-07-11T06:22:08.865Z,43.86
2023-07-11T06:22:40.648Z,44.03
2023-07-11T06:23:12.067Z,43.90
2023-07-11T06:23:43.578Z,43.97
2023-07-11T06:24:15.028Z,44.01
2023-07-11T06:24:46.441Z,43.84
2023-07-11T06:25:17.912Z,44.26
2023-07-11T06:25:49.320Z,43.96
2023-07-11T06:26:20.773Z,44.22
2023-07-11T06:26:52.229Z,43.93
2023-07-11T06:27:23.699Z,43.78
2023-07-11T06:27:55.176Z,44.24
2023-07-11T06:28:26.638Z,44.02
2023-07-11T06:28:58.107Z,44.32
2023-07-11T06:29:29.659Z,44.29
2023-07-11T06:30:01.179Z,43.82
2023-07-11T06:30:32.618Z,44.10
2023-07-11T06:31:06.489Z,44.35
2023-07-11T06:31:39.217Z,44.25
2023-07-11T06:32:10.763Z,43.96
2023-07-11T06:32:42.372Z,44.24
2023-07-11T06:33:13.829Z,43.90
2023-07-11T06:33:45.345Z,44.08
2023-07-11T06:34:16.733Z,43.83
2023-07-11T06:34:48.154Z,43.85
2023-07-11T06:35:19.586Z,43.88
2023-07-11T06:35:51.049Z,43.85
2023-07-11T06:36:22.505Z,43.67
2023-07-11T06:36:54.096Z,43.91
2023-07-11T06:37:25.533Z,44.23
2023-07-11T06:37:56.960Z,44.13
2023-07-11T06:38:28.356Z,44.10
2023-07-11T06:38:59.817Z,44.03
2023-07-11T06:39:31.227Z,44.14
2023-07-11T06:40:02.740Z,43.80
2023-07-11T06:40:34.169Z,44.16
2023-07-11T06:41:05.940Z,44.19
2023-07-11T06:41:37.767Z,44.00
2023-07-11T06:42:09.226Z,43.97
2023-07-11T06:42:40.670Z,43.83
2023-07-11T06:43:12.127Z,43.80
2023-07-11T06:43:43.532Z,44.26
2023-07-11T06:44:15.067Z,44.11
2023-07-11T06:44:46.495Z,44.12
2023-07-11T06:45:17.909Z,43.85
2023-07-11T06:45:49.444Z,44.13
2023-07-11T06:46:21.018Z,44.14